sensor_id;sensor_type;location;lat;lon;timestamp;P1;durP1;ratioP1;P2;durP2;ratioP2
4700;SDS011;8724;51.272;6.554;2023-07-13T00:01:13;2.90;;;1.10;;
4700;SDS011;8724;51.272;6.554;2023-07-13T00:03:42;2.80;;;1.63;;
4700;SDS011;8724;51.272;6.554;2023-07-13T00:06:12;2.20;;;1.50;;
4700;SDS011;8724;51.272;6.554;2023-07-13T00:08:41;2.70;;;1.50;;
4700;SDS011;8724;51.272;6.554;2023-07-13T00:11:09;2.47;;;1.30;;
4700;SDS011;8724;51.272;6.554;2023-07-13T00:13:38;2.30;;;1.47;;
4700;SDS011;8724;51.272;6.554;2023-07-13T00:16:07;2.50;;;1.20;;
4700;SDS011;8724;51.272;6.554;2023-07-13T00:18:37;2.60;;;2.00;;
4700;SDS011;8724;51.272;6.554;2023-07-13T00:21:05;2.07;;;1.20;;
4700;SDS011;8724;51.272;6.554;2023-07-13T00:23:36;3.60;;;1.40;;
4700;SDS011;8724;51.272;6.554;2023-07-13T00:26:06;3.93;;;1.70;;
4700;SDS011;8724;51.272;6.554;2023-07-13T00:28:37;3.70;;;1.50;;
4700;SDS011;8724;51.272;6.554;2023-07-13T00:31:08;3.70;;;1.40;;
4700;SDS011;8724;51.272;6.554;2023-07-13T00:33:38;1.53;;;1.43;;
4700;SDS011;8724;51.272;6.554;2023-07-13T00:36:07;3.47;;;1.77;;
4700;SDS011;8724;51.272;6.554;2023-07-13T00:38:38;3.43;;;1.27;;
4700;SDS011;8724;51.272;6.554;2023-07-13T00:41:07;5.10;;;1.50;;
4700;SDS011;8724;51.272;6.554;2023-07-13T00:43:36;2.83;;;1.37;;
4700;SDS011;8724;51.272;6.554;2023-07-13T00:48:53;2.00;;;1.43;;
4700;SDS011;8724;51.272;6.554;2023-07-13T00:51:25;5.40;;;2.13;;
4700;SDS011;8724;51.272;6.554;2023-07-13T00:54:05;7.80;;;2.20;;
4700;SDS011;8724;51.272;6.554;2023-07-13T00:56:37;3.13;;;1.90;;
4700;SDS011;8724;51.272;6.554;2023-07-13T00:59:07;4.13;;;2.47;;
4700;SDS011;8724;51.272;6.554;2023-07-13T01:01:38;4.80;;;3.13;;
4700;SDS011;8724;51.272;6.554;2023-07-13T01:04:07;4.00;;;1.70;;
4700;SDS011;8724;51.272;6.554;2023-07-13T01:06:37;5.70;;;2.00;;
4700;SDS011;8724;51.272;6.554;2023-07-13T01:09:08;6.47;;;2.43;;
4700;SDS011;8724;51.272;6.554;2023-07-13T01:11:38;5.03;;;1.97;;
4700;SDS011;8724;51.272;6.554;2023-07-13T01:14:07;5.07;;;2.30;;
4700;SDS011;8724;51.272;6.554;2023-07-13T01:16:37;3.53;;;2.20;;
4700;SDS011;8724;51.272;6.554;2023-07-13T01:19:08;2.17;;;1.47;;
4700;SDS011;8724;51.272;6.554;2023-07-13T01:21:49;2.87;;;1.63;;
4700;SDS011;8724;51.272;6.554;2023-07-13T01:24:18;1.70;;;1.43;;
4700;SDS011;8724;51.272;6.554;2023-07-13T01:26:48;2.43;;;1.30;;
4700;SDS011;8724;51.272;6.554;2023-07-13T01:29:16;1.70;;;1.60;;
4700;SDS011;8724;51.272;6.554;2023-07-13T01:31:45;3.60;;;1.40;;
4700;SDS011;8724;51.272;6.554;2023-07-13T01:34:13;1.63;;;1.30;;
4700;SDS011;8724;51.272;6.554;2023-07-13T01:36:42;9.70;;;2.17;;
4700;SDS011;8724;51.272;6.554;2023-07-13T01:39:12;2.07;;;1.70;;
4700;SDS011;8724;51.272;6.554;2023-07-13T01:41:41;3.67;;;2.00;;
4700;SDS011;8724;51.272;6.554;2023-07-13T01:44:09;4.27;;;1.60;;
4700;SDS011;8724;51.272;6.554;2023-07-13T01:46:38;4.03;;;2.27;;
4700;SDS011;8724;51.272;6.554;2023-07-13T01:49:06;2.70;;;1.80;;
4700;SDS011;8724;51.272;6.554;2023-07-13T01:51:35;1.97;;;1.50;;
4700;SDS011;8724;51.272;6.554;2023-07-13T01:54:03;2.10;;;1.30;;
4700;SDS011;8724;51.272;6.554;2023-07-13T01:56:33;2.30;;;1.60;;
4700;SDS011;8724;51.272;6.554;2023-07-13T01:59:01;3.23;;;1.40;;
4700;SDS011;8724;51.272;6.554;2023-07-13T02:01:30;3.07;;;1.83;;
4700;SDS011;8724;51.272;6.554;2023-07-13T02:03:58;4.70;;;1.80;;
4700;SDS011;8724;51.272;6.554;2023-07-13T02:06:28;3.33;;;1.70;;
4700;SDS011;8724;51.272;6.554;2023-07-13T02:08:57;6.43;;;2.60;;
4700;SDS011;8724;51.272;6.554;2023-07-13T02:11:26;3.80;;;2.17;;
4700;SDS011;8724;51.272;6.554;2023-07-13T02:14:01;2.00;;;1.43;;
4700;SDS011;8724;51.272;6.554;2023-07-13T02:16:30;4.37;;;1.87;;
4700;SDS011;8724;51.272;6.554;2023-07-13T02:18:59;4.80;;;2.27;;
4700;SDS011;8724;51.272;6.554;2023-07-13T02:21:28;2.50;;;1.60;;
4700;SDS011;8724;51.272;6.554;2023-07-13T02:23:57;6.17;;;1.60;;
4700;SDS011;8724;51.272;6.554;2023-07-13T02:26:26;2.73;;;1.90;;
4700;SDS011;8724;51.272;6.554;2023-07-13T02:28:55;7.23;;;2.27;;
4700;SDS011;8724;51.272;6.554;2023-07-13T02:31:25;2.13;;;1.40;;
4700;SDS011;8724;51.272;6.554;2023-07-13T02:33:54;4.50;;;1.60;;
4700;SDS011;8724;51.272;6.554;2023-07-13T02:36:22;6.23;;;1.70;;
4700;SDS011;8724;51.272;6.554;2023-07-13T02:38:50;6.43;;;1.77;;
4700;SDS011;8724;51.272;6.554;2023-07-13T02:41:19;3.13;;;1.40;;
4700;SDS011;8724;51.272;6.554;2023-07-13T02:43:49;4.63;;;2.03;;
4700;SDS011;8724;51.272;6.554;2023-07-13T02:46:18;3.40;;;1.73;;
4700;SDS011;8724;51.272;6.554;2023-07-13T02:48:48;4.10;;;2.07;;
4700;SDS011;8724;51.272;6.554;2023-07-13T02:51:17;2.57;;;1.30;;
4700;SDS011;8724;51.272;6.554;2023-07-13T02:53:45;2.53;;;1.60;;
4700;SDS011;8724;51.272;6.554;2023-07-13T02:56:14;4.47;;;1.90;;
4700;SDS011;8724;51.272;6.554;2023-07-13T02:58:43;9.73;;;1.70;;
4700;SDS011;8724;51.272;6.554;2023-07-13T03:01:12;3.23;;;1.40;;
4700;SDS011;8724;51.272;6.554;2023-07-13T03:03:46;3.43;;;2.17;;
4700;SDS011;8724;51.272;6.554;2023-07-13T03:06:16;5.83;;;1.83;;
4700;SDS011;8724;51.272;6.554;2023-07-13T03:08:50;3.10;;;1.67;;
4700;SDS011;8724;51.272;6.554;2023-07-13T03:11:20;4.10;;;1.60;;
4700;SDS011;8724;51.272;6.554;2023-07-13T03:14:06;2.50;;;1.53;;
4700;SDS011;8724;51.272;6.554;2023-07-13T03:16:37;3.10;;;1.70;;
4700;SDS011;8724;51.272;6.554;2023-07-13T03:19:06;3.33;;;1.67;;
4700;SDS011;8724;51.272;6.554;2023-07-13T03:21:36;2.03;;;1.50;;
4700;SDS011;8724;51.272;6.554;2023-07-13T03:24:05;4.70;;;1.57;;
4700;SDS011;8724;51.272;6.554;2023-07-13T03:26:33;2.33;;;1.47;;
4700;SDS011;8724;51.272;6.554;2023-07-13T03:29:03;5.53;;;1.57;;
4700;SDS011;8724;51.272;6.554;2023-07-13T03:31:32;2.47;;;1.40;;
4700;SDS011;8724;51.272;6.554;2023-07-13T03:34:02;4.43;;;1.57;;
4700;SDS011;8724;51.272;6.554;2023-07-13T03:36:31;5.00;;;2.07;;
4700;SDS011;8724;51.272;6.554;2023-07-13T03:39:05;2.73;;;1.47;;
4700;SDS011;8724;51.272;6.554;2023-07-13T03:41:46;3.80;;;1.53;;
4700;SDS011;8724;51.272;6.554;2023-07-13T03:44:15;5.87;;;1.97;;
4700;SDS011;8724;51.272;6.554;2023-07-13T03:46:48;2.90;;;1.80;;
4700;SDS011;8724;51.272;6.554;2023-07-13T03:49:17;5.20;;;2.30;;
4700;SDS011;8724;51.272;6.554;2023-07-13T03:51:45;4.30;;;1.70;;
4700;SDS011;8724;51.272;6.554;2023-07-13T03:54:18;3.00;;;1.03;;
4700;SDS011;8724;51.272;6.554;2023-07-13T03:56:46;5.73;;;2.00;;
4700;SDS011;8724;51.272;6.554;2023-07-13T03:59:16;2.30;;;1.47;;
4700;SDS011;8724;51.272;6.554;2023-07-13T04:01:45;6.30;;;2.00;;
4700;SDS011;8724;51.272;6.554;2023-07-13T04:04:13;4.27;;;2.03;;
4700;SDS011;8724;51.272;6.554;2023-07-13T04:06:42;2.30;;;1.43;;
4700;SDS011;8724;51.272;6.554;2023-07-13T04:09:11;4.63;;;1.73;;
4700;SDS011;8724;51.272;6.554;2023-07-13T04:11:42;3.60;;;1.50;;
4700;SDS011;8724;51.272;6.554;2023-07-13T04:14:10;5.53;;;2.13;;
4700;SDS011;8724;51.272;6.554;2023-07-13T04:16:39;8.33;;;1.70;;
4700;SDS011;8724;51.272;6.554;2023-07-13T04:19:08;5.30;;;2.67;;
4700;SDS011;8724;51.272;6.554;2023-07-13T04:21:37;4.33;;;1.90;;
4700;SDS011;8724;51.272;6.554;2023-07-13T04:24:05;3.80;;;1.93;;
4700;SDS011;8724;51.272;6.554;2023-07-13T04:26:35;4.83;;;1.67;;
4700;SDS011;8724;51.272;6.554;2023-07-13T04:29:07;3.63;;;1.90;;
4700;SDS011;8724;51.272;6.554;2023-07-13T04:31:35;4.33;;;1.80;;
4700;SDS011;8724;51.272;6.554;2023-07-13T04:34:04;4.83;;;1.93;;
4700;SDS011;8724;51.272;6.554;2023-07-13T04:36:33;4.23;;;1.53;;
4700;SDS011;8724;51.272;6.554;2023-07-13T04:39:04;6.73;;;1.87;;
4700;SDS011;8724;51.272;6.554;2023-07-13T04:41:32;6.70;;;2.27;;
4700;SDS011;8724;51.272;6.554;2023-07-13T04:44:01;5.37;;;1.90;;
4700;SDS011;8724;51.272;6.554;2023-07-13T04:46:31;2.40;;;1.60;;
4700;SDS011;8724;51.272;6.554;2023-07-13T04:49:00;3.10;;;1.20;;
4700;SDS011;8724;51.272;6.554;2023-07-13T04:51:30;2.20;;;1.80;;
4700;SDS011;8724;51.272;6.554;2023-07-13T04:54:02;2.97;;;1.83;;
4700;SDS011;8724;51.272;6.554;2023-07-13T04:56:31;4.10;;;1.97;;
4700;SDS011;8724;51.272;6.554;2023-07-13T04:58:59;3.67;;;1.83;;
4700;SDS011;8724;51.272;6.554;2023-07-13T05:01:28;5.10;;;2.50;;
4700;SDS011;8724;51.272;6.554;2023-07-13T05:03:58;3.90;;;2.00;;
4700;SDS011;8724;51.272;6.554;2023-07-13T05:06:27;3.17;;;1.83;;
4700;SDS011;8724;51.272;6.554;2023-07-13T05:08:57;8.03;;;2.00;;
4700;SDS011;8724;51.272;6.554;2023-07-13T05:11:25;5.27;;;2.20;;
4700;SDS011;8724;51.272;6.554;2023-07-13T05:13:54;3.47;;;1.47;;
4700;SDS011;8724;51.272;6.554;2023-07-13T05:16:22;5.07;;;1.90;;
4700;SDS011;8724;51.272;6.554;2023-07-13T05:18:51;2.43;;;1.70;;
4700;SDS011;8724;51.272;6.554;2023-07-13T05:21:21;2.87;;;1.70;;
4700;SDS011;8724;51.272;6.554;2023-07-13T05:23:49;4.17;;;2.10;;
4700;SDS011;8724;51.272;6.554;2023-07-13T05:26:18;4.73;;;1.93;;
4700;SDS011;8724;51.272;6.554;2023-07-13T05:28:47;4.40;;;1.83;;
4700;SDS011;8724;51.272;6.554;2023-07-13T05:31:15;3.70;;;1.60;;
4700;SDS011;8724;51.272;6.554;2023-07-13T05:33:44;5.20;;;2.23;;
4700;SDS011;8724;51.272;6.554;2023-07-13T05:36:12;4.63;;;2.10;;
4700;SDS011;8724;51.272;6.554;2023-07-13T05:38:42;6.00;;;2.60;;
4700;SDS011;8724;51.272;6.554;2023-07-13T05:41:11;5.10;;;2.33;;
4700;SDS011;8724;51.272;6.554;2023-07-13T05:43:39;7.83;;;2.00;;
4700;SDS011;8724;51.272;6.554;2023-07-13T05:46:08;4.43;;;2.20;;
4700;SDS011;8724;51.272;6.554;2023-07-13T05:48:37;6.47;;;2.70;;
4700;SDS011;8724;51.272;6.554;2023-07-13T05:51:05;3.93;;;1.87;;
4700;SDS011;8724;51.272;6.554;2023-07-13T05:53:34;5.33;;;2.10;;
4700;SDS011;8724;51.272;6.554;2023-07-13T05:56:04;7.27;;;2.97;;
4700;SDS011;8724;51.272;6.554;2023-07-13T05:58:33;9.77;;;2.50;;
4700;SDS011;8724;51.272;6.554;2023-07-13T06:01:02;4.50;;;2.33;;
4700;SDS011;8724;51.272;6.554;2023-07-13T06:03:32;4.90;;;2.10;;
4700;SDS011;8724;51.272;6.554;2023-07-13T06:06:01;5.70;;;2.30;;
4700;SDS011;8724;51.272;6.554;2023-07-13T06:08:30;9.93;;;2.47;;
4700;SDS011;8724;51.272;6.554;2023-07-13T06:11:02;7.10;;;3.37;;
4700;SDS011;8724;51.272;6.554;2023-07-13T06:13:33;5.30;;;2.30;;
4700;SDS011;8724;51.272;6.554;2023-07-13T06:16:02;7.47;;;2.90;;
4700;SDS011;8724;51.272;6.554;2023-07-13T06:18:31;9.57;;;3.20;;
4700;SDS011;8724;51.272;6.554;2023-07-13T06:21:01;7.07;;;2.97;;
4700;SDS011;8724;51.272;6.554;2023-07-13T06:23:33;4.60;;;2.63;;
4700;SDS011;8724;51.272;6.554;2023-07-13T06:26:02;4.47;;;2.40;;
4700;SDS011;8724;51.272;6.554;2023-07-13T06:28:33;6.13;;;2.63;;
4700;SDS011;8724;51.272;6.554;2023-07-13T06:31:04;5.97;;;2.27;;
4700;SDS011;8724;51.272;6.554;2023-07-13T06:33:34;8.17;;;3.20;;
4700;SDS011;8724;51.272;6.554;2023-07-13T06:36:04;9.97;;;3.10;;
4700;SDS011;8724;51.272;6.554;2023-07-13T06:38:36;5.73;;;2.97;;
4700;SDS011;8724;51.272;6.554;2023-07-13T06:41:07;6.53;;;2.80;;
4700;SDS011;8724;51.272;6.554;2023-07-13T06:43:36;11.93;;;2.77;;
4700;SDS011;8724;51.272;6.554;2023-07-13T06:46:05;6.63;;;3.10;;
4700;SDS011;8724;51.272;6.554;2023-07-13T06:48:34;5.17;;;2.47;;
4700;SDS011;8724;51.272;6.554;2023-07-13T06:51:03;5.77;;;2.47;;
4700;SDS011;8724;51.272;6.554;2023-07-13T06:53:32;3.30;;;2.63;;
4700;SDS011;8724;51.272;6.554;2023-07-13T06:56:00;6.57;;;3.13;;
4700;SDS011;8724;51.272;6.554;2023-07-13T06:58:30;9.53;;;3.63;;
4700;SDS011;8724;51.272;6.554;2023-07-13T07:01:02;4.03;;;2.40;;
4700;SDS011;8724;51.272;6.554;2023-07-13T07:03:33;7.73;;;3.17;;
4700;SDS011;8724;51.272;6.554;2023-07-13T07:06:03;5.00;;;3.30;;
4700;SDS011;8724;51.272;6.554;2023-07-13T07:08:40;9.90;;;3.30;;
4700;SDS011;8724;51.272;6.554;2023-07-13T07:11:11;3.20;;;2.50;;
4700;SDS011;8724;51.272;6.554;2023-07-13T07:13:42;11.73;;;3.33;;
4700;SDS011;8724;51.272;6.554;2023-07-13T07:16:10;6.73;;;2.77;;
4700;SDS011;8724;51.272;6.554;2023-07-13T07:18:39;11.43;;;3.23;;
4700;SDS011;8724;51.272;6.554;2023-07-13T07:21:07;4.83;;;2.40;;
4700;SDS011;8724;51.272;6.554;2023-07-13T07:23:36;4.80;;;2.27;;
4700;SDS011;8724;51.272;6.554;2023-07-13T07:26:05;5.97;;;2.67;;
4700;SDS011;8724;51.272;6.554;2023-07-13T07:28:35;6.03;;;2.53;;
4700;SDS011;8724;51.272;6.554;2023-07-13T07:31:11;5.37;;;2.70;;
4700;SDS011;8724;51.272;6.554;2023-07-13T07:33:42;7.03;;;2.93;;
4700;SDS011;8724;51.272;6.554;2023-07-13T07:36:11;6.77;;;3.57;;
4700;SDS011;8724;51.272;6.554;2023-07-13T07:38:42;10.40;;;2.70;;
4700;SDS011;8724;51.272;6.554;2023-07-13T07:41:11;7.53;;;3.00;;
4700;SDS011;8724;51.272;6.554;2023-07-13T07:43:43;5.30;;;2.40;;
4700;SDS011;8724;51.272;6.554;2023-07-13T07:46:13;8.37;;;3.17;;
4700;SDS011;8724;51.272;6.554;2023-07-13T07:48:41;4.57;;;2.83;;
4700;SDS011;8724;51.272;6.554;2023-07-13T07:51:10;5.53;;;2.87;;
4700;SDS011;8724;51.272;6.554;2023-07-13T07:53:38;5.00;;;2.63;;
4700;SDS011;8724;51.272;6.554;2023-07-13T07:56:07;8.67;;;3.10;;
4700;SDS011;8724;51.272;6.554;2023-07-13T07:58:39;7.80;;;2.93;;
4700;SDS011;8724;51.272;6.554;2023-07-13T08:01:10;3.10;;;2.27;;
4700;SDS011;8724;51.272;6.554;2023-07-13T08:03:43;6.10;;;2.40;;
4700;SDS011;8724;51.272;6.554;2023-07-13T08:06:14;5.00;;;2.90;;
4700;SDS011;8724;51.272;6.554;2023-07-13T08:09:03;4.30;;;2.13;;
4700;SDS011;8724;51.272;6.554;2023-07-13T08:11:31;6.37;;;3.00;;
4700;SDS011;8724;51.272;6.554;2023-07-13T08:14:02;5.97;;;2.47;;
4700;SDS011;8724;51.272;6.554;2023-07-13T08:16:32;8.43;;;2.80;;
4700;SDS011;8724;51.272;6.554;2023-07-13T08:19:01;5.43;;;2.63;;
4700;SDS011;8724;51.272;6.554;2023-07-13T08:21:30;10.13;;;2.47;;
4700;SDS011;8724;51.272;6.554;2023-07-13T08:23:59;6.90;;;3.00;;
4700;SDS011;8724;51.272;6.554;2023-07-13T08:26:27;8.87;;;3.43;;
4700;SDS011;8724;51.272;6.554;2023-07-13T08:28:56;2.97;;;2.00;;
4700;SDS011;8724;51.272;6.554;2023-07-13T08:31:25;4.90;;;2.27;;
4700;SDS011;8724;51.272;6.554;2023-07-13T08:33:55;5.40;;;2.77;;
4700;SDS011;8724;51.272;6.554;2023-07-13T08:36:25;6.37;;;2.63;;
4700;SDS011;8724;51.272;6.554;2023-07-13T08:38:54;7.70;;;3.53;;
4700;SDS011;8724;51.272;6.554;2023-07-13T08:41:22;5.53;;;2.80;;
4700;SDS011;8724;51.272;6.554;2023-07-13T08:43:51;11.00;;;3.03;;
4700;SDS011;8724;51.272;6.554;2023-07-13T08:46:25;6.97;;;3.30;;
4700;SDS011;8724;51.272;6.554;2023-07-13T08:49:01;8.97;;;2.50;;
4700;SDS011;8724;51.272;6.554;2023-07-13T08:51:34;7.67;;;2.70;;
4700;SDS011;8724;51.272;6.554;2023-07-13T08:54:10;7.67;;;2.77;;
4700;SDS011;8724;51.272;6.554;2023-07-13T08:56:46;6.47;;;2.67;;
4700;SDS011;8724;51.272;6.554;2023-07-13T08:59:20;10.70;;;3.00;;
4700;SDS011;8724;51.272;6.554;2023-07-13T09:01:58;11.33;;;2.83;;
4700;SDS011;8724;51.272;6.554;2023-07-13T09:04:40;4.63;;;2.90;;
4700;SDS011;8724;51.272;6.554;2023-07-13T09:07:14;6.73;;;2.80;;
4700;SDS011;8724;51.272;6.554;2023-07-13T09:09:55;3.60;;;2.70;;
4700;SDS011;8724;51.272;6.554;2023-07-13T09:12:35;6.43;;;2.80;;
4700;SDS011;8724;51.272;6.554;2023-07-13T09:15:20;7.23;;;3.00;;
4700;SDS011;8724;51.272;6.554;2023-07-13T09:17:53;5.83;;;2.50;;
4700;SDS011;8724;51.272;6.554;2023-07-13T09:20:27;3.47;;;2.47;;
4700;SDS011;8724;51.272;6.554;2023-07-13T09:22:59;4.33;;;2.50;;
4700;SDS011;8724;51.272;6.554;2023-07-13T09:25:34;8.83;;;2.90;;
4700;SDS011;8724;51.272;6.554;2023-07-13T09:28:08;6.87;;;2.50;;
4700;SDS011;8724;51.272;6.554;2023-07-13T09:30:51;6.50;;;2.53;;
4700;SDS011;8724;51.272;6.554;2023-07-13T09:33:23;5.30;;;2.60;;
4700;SDS011;8724;51.272;6.554;2023-07-13T09:35:57;9.47;;;2.77;;
4700;SDS011;8724;51.272;6.554;2023-07-13T09:38:26;4.80;;;3.20;;
4700;SDS011;8724;51.272;6.554;2023-07-13T09:41:03;4.20;;;2.50;;
4700;SDS011;8724;51.272;6.554;2023-07-13T09:46:28;5.60;;;2.70;;
4700;SDS011;8724;51.272;6.554;2023-07-13T09:48:57;4.70;;;2.53;;
4700;SDS011;8724;51.272;6.554;2023-07-13T09:51:27;7.73;;;2.63;;
4700;SDS011;8724;51.272;6.554;2023-07-13T09:53:56;4.03;;;2.27;;
4700;SDS011;8724;51.272;6.554;2023-07-13T09:56:26;4.60;;;2.10;;
4700;SDS011;8724;51.272;6.554;2023-07-13T09:58:57;6.20;;;2.77;;
4700;SDS011;8724;51.272;6.554;2023-07-13T10:01:32;3.90;;;2.43;;
4700;SDS011;8724;51.272;6.554;2023-07-13T10:04:09;15.80;;;3.03;;
4700;SDS011;8724;51.272;6.554;2023-07-13T10:06:41;5.70;;;2.47;;
4700;SDS011;8724;51.272;6.554;2023-07-13T10:09:10;5.27;;;2.90;;
4700;SDS011;8724;51.272;6.554;2023-07-13T10:11:42;10.07;;;2.73;;
4700;SDS011;8724;51.272;6.554;2023-07-13T10:14:12;5.10;;;2.27;;
4700;SDS011;8724;51.272;6.554;2023-07-13T10:16:43;4.10;;;2.23;;
4700;SDS011;8724;51.272;6.554;2023-07-13T10:19:13;2.77;;;1.73;;
4700;SDS011;8724;51.272;6.554;2023-07-13T10:21:52;2.90;;;1.90;;
4700;SDS011;8724;51.272;6.554;2023-07-13T10:24:23;8.07;;;2.40;;
4700;SDS011;8724;51.272;6.554;2023-07-13T10:26:54;4.63;;;2.40;;
4700;SDS011;8724;51.272;6.554;2023-07-13T10:29:32;2.57;;;2.10;;
4700;SDS011;8724;51.272;6.554;2023-07-13T10:32:07;5.60;;;2.33;;
4700;SDS011;8724;51.272;6.554;2023-07-13T10:34:38;5.33;;;2.40;;
4700;SDS011;8724;51.272;6.554;2023-07-13T10:37:09;4.90;;;2.37;;
4700;SDS011;8724;51.272;6.554;2023-07-13T10:39:47;4.60;;;2.40;;
4700;SDS011;8724;51.272;6.554;2023-07-13T10:42:18;3.57;;;2.23;;
4700;SDS011;8724;51.272;6.554;2023-07-13T10:44:55;8.03;;;2.10;;
4700;SDS011;8724;51.272;6.554;2023-07-13T10:47:23;2.10;;;1.90;;
4700;SDS011;8724;51.272;6.554;2023-07-13T10:49:54;3.40;;;2.10;;
4700;SDS011;8724;51.272;6.554;2023-07-13T10:52:42;3.33;;;2.07;;
4700;SDS011;8724;51.272;6.554;2023-07-13T10:55:32;4.70;;;2.90;;
4700;SDS011;8724;51.272;6.554;2023-07-13T10:58:14;4.63;;;2.33;;
4700;SDS011;8724;51.272;6.554;2023-07-13T11:00:48;5.13;;;2.23;;
4700;SDS011;8724;51.272;6.554;2023-07-13T11:03:20;3.27;;;1.87;;
4700;SDS011;8724;51.272;6.554;2023-07-13T11:06:04;5.17;;;2.10;;
4700;SDS011;8724;51.272;6.554;2023-07-13T11:08:38;5.70;;;2.57;;
4700;SDS011;8724;51.272;6.554;2023-07-13T11:14:25;8.60;;;2.27;;
4700;SDS011;8724;51.272;6.554;2023-07-13T11:16:56;4.20;;;2.20;;
4700;SDS011;8724;51.272;6.554;2023-07-13T11:19:28;4.33;;;2.47;;
4700;SDS011;8724;51.272;6.554;2023-07-13T11:22:10;5.70;;;2.73;;
4700;SDS011;8724;51.272;6.554;2023-07-13T11:24:53;2.90;;;1.93;;
4700;SDS011;8724;51.272;6.554;2023-07-13T11:30:23;6.53;;;2.73;;
4700;SDS011;8724;51.272;6.554;2023-07-13T11:33:02;4.80;;;2.23;;
4700;SDS011;8724;51.272;6.554;2023-07-13T11:35:41;3.50;;;2.47;;
4700;SDS011;8724;51.272;6.554;2023-07-13T11:38:20;4.07;;;1.80;;
4700;SDS011;8724;51.272;6.554;2023-07-13T11:40:53;2.00;;;1.40;;
4700;SDS011;8724;51.272;6.554;2023-07-13T11:43:22;3.10;;;2.03;;
4700;SDS011;8724;51.272;6.554;2023-07-13T11:45:52;2.97;;;1.50;;
4700;SDS011;8724;51.272;6.554;2023-07-13T11:48:22;2.70;;;1.90;;
4700;SDS011;8724;51.272;6.554;2023-07-13T11:50:53;3.50;;;1.60;;
4700;SDS011;8724;51.272;6.554;2023-07-13T11:53:27;4.80;;;2.00;;
4700;SDS011;8724;51.272;6.554;2023-07-13T11:55:58;5.07;;;2.10;;
4700;SDS011;8724;51.272;6.554;2023-07-13T11:58:28;2.27;;;1.80;;
4700;SDS011;8724;51.272;6.554;2023-07-13T12:00:58;2.33;;;1.47;;
4700;SDS011;8724;51.272;6.554;2023-07-13T12:03:31;3.67;;;1.50;;
4700;SDS011;8724;51.272;6.554;2023-07-13T12:06:03;3.07;;;2.20;;
4700;SDS011;8724;51.272;6.554;2023-07-13T12:08:37;2.90;;;1.67;;
4700;SDS011;8724;51.272;6.554;2023-07-13T12:11:16;5.10;;;1.93;;
4700;SDS011;8724;51.272;6.554;2023-07-13T12:13:46;3.00;;;1.50;;
4700;SDS011;8724;51.272;6.554;2023-07-13T12:16:16;2.80;;;1.80;;
4700;SDS011;8724;51.272;6.554;2023-07-13T12:18:53;3.43;;;1.40;;
4700;SDS011;8724;51.272;6.554;2023-07-13T12:21:24;3.00;;;1.43;;
4700;SDS011;8724;51.272;6.554;2023-07-13T12:24:00;3.03;;;1.93;;
4700;SDS011;8724;51.272;6.554;2023-07-13T12:26:32;2.50;;;1.40;;
4700;SDS011;8724;51.272;6.554;2023-07-13T12:29:01;3.73;;;1.70;;
4700;SDS011;8724;51.272;6.554;2023-07-13T12:31:36;3.00;;;1.67;;
4700;SDS011;8724;51.272;6.554;2023-07-13T12:34:08;2.27;;;2.03;;
4700;SDS011;8724;51.272;6.554;2023-07-13T12:36:40;2.20;;;1.33;;
4700;SDS011;8724;51.272;6.554;2023-07-13T12:39:17;3.10;;;1.70;;
4700;SDS011;8724;51.272;6.554;2023-07-13T12:41:49;3.60;;;1.60;;
4700;SDS011;8724;51.272;6.554;2023-07-13T12:44:21;1.83;;;1.33;;
4700;SDS011;8724;51.272;6.554;2023-07-13T12:46:56;2.03;;;1.50;;
4700;SDS011;8724;51.272;6.554;2023-07-13T12:49:28;4.90;;;1.83;;
4700;SDS011;8724;51.272;6.554;2023-07-13T12:52:00;2.67;;;1.60;;
4700;SDS011;8724;51.272;6.554;2023-07-13T12:54:30;2.27;;;1.73;;
4700;SDS011;8724;51.272;6.554;2023-07-13T12:57:00;1.90;;;1.67;;
4700;SDS011;8724;51.272;6.554;2023-07-13T12:59:30;7.07;;;1.60;;
4700;SDS011;8724;51.272;6.554;2023-07-13T13:02:08;3.63;;;2.00;;
4700;SDS011;8724;51.272;6.554;2023-07-13T13:04:54;2.87;;;2.30;;
4700;SDS011;8724;51.272;6.554;2023-07-13T13:07:23;2.30;;;1.67;;
4700;SDS011;8724;51.272;6.554;2023-07-13T13:09:53;2.93;;;1.73;;
4700;SDS011;8724;51.272;6.554;2023-07-13T13:12:23;3.53;;;1.80;;
4700;SDS011;8724;51.272;6.554;2023-07-13T13:14:53;1.47;;;1.30;;
4700;SDS011;8724;51.272;6.554;2023-07-13T13:17:22;2.53;;;1.30;;
4700;SDS011;8724;51.272;6.554;2023-07-13T13:19:57;2.50;;;1.77;;
4700;SDS011;8724;51.272;6.554;2023-07-13T13:22:25;4.43;;;1.70;;
4700;SDS011;8724;51.272;6.554;2023-07-13T13:24:54;2.97;;;1.60;;
4700;SDS011;8724;51.272;6.554;2023-07-13T13:27:23;4.17;;;1.60;;
4700;SDS011;8724;51.272;6.554;2023-07-13T13:29:52;2.13;;;1.70;;
4700;SDS011;8724;51.272;6.554;2023-07-13T13:32:21;3.30;;;1.60;;
4700;SDS011;8724;51.272;6.554;2023-07-13T13:34:50;1.50;;;1.40;;
4700;SDS011;8724;51.272;6.554;2023-07-13T13:37:20;3.73;;;1.77;;
4700;SDS011;8724;51.272;6.554;2023-07-13T13:39:52;5.03;;;2.00;;
4700;SDS011;8724;51.272;6.554;2023-07-13T13:42:36;4.33;;;1.73;;
4700;SDS011;8724;51.272;6.554;2023-07-13T13:45:06;3.20;;;2.10;;
4700;SDS011;8724;51.272;6.554;2023-07-13T13:47:36;1.43;;;1.30;;
4700;SDS011;8724;51.272;6.554;2023-07-13T13:50:14;4.50;;;2.00;;
4700;SDS011;8724;51.272;6.554;2023-07-13T13:52:44;3.80;;;1.87;;
4700;SDS011;8724;51.272;6.554;2023-07-13T13:55:14;4.00;;;1.63;;
4700;SDS011;8724;51.272;6.554;2023-07-13T13:57:46;2.93;;;2.10;;
4700;SDS011;8724;51.272;6.554;2023-07-13T14:00:15;3.77;;;1.80;;
4700;SDS011;8724;51.272;6.554;2023-07-13T14:02:45;3.60;;;1.90;;
4700;SDS011;8724;51.272;6.554;2023-07-13T14:05:17;2.37;;;1.50;;
4700;SDS011;8724;51.272;6.554;2023-07-13T14:07:49;4.50;;;2.40;;
4700;SDS011;8724;51.272;6.554;2023-07-13T14:10:19;4.47;;;2.13;;
4700;SDS011;8724;51.272;6.554;2023-07-13T14:12:50;2.60;;;1.70;;
4700;SDS011;8724;51.272;6.554;2023-07-13T14:15:21;4.57;;;1.93;;
4700;SDS011;8724;51.272;6.554;2023-07-13T14:17:51;4.20;;;1.80;;
4700;SDS011;8724;51.272;6.554;2023-07-13T14:20:21;3.80;;;1.57;;
4700;SDS011;8724;51.272;6.554;2023-07-13T14:22:52;1.93;;;1.73;;
4700;SDS011;8724;51.272;6.554;2023-07-13T14:25:21;4.17;;;1.60;;
4700;SDS011;8724;51.272;6.554;2023-07-13T14:27:58;3.63;;;1.40;;
4700;SDS011;8724;51.272;6.554;2023-07-13T14:30:30;4.50;;;1.50;;
4700;SDS011;8724;51.272;6.554;2023-07-13T14:32:59;4.67;;;2.20;;
4700;SDS011;8724;51.272;6.554;2023-07-13T14:35:27;3.80;;;2.20;;
4700;SDS011;8724;51.272;6.554;2023-07-13T14:37:56;3.23;;;1.67;;
4700;SDS011;8724;51.272;6.554;2023-07-13T14:40:28;4.10;;;1.73;;
4700;SDS011;8724;51.272;6.554;2023-07-13T14:43:00;4.63;;;1.67;;
4700;SDS011;8724;51.272;6.554;2023-07-13T14:45:28;1.83;;;1.33;;
4700;SDS011;8724;51.272;6.554;2023-07-13T14:47:59;1.40;;;1.30;;
4700;SDS011;8724;51.272;6.554;2023-07-13T14:50:31;2.87;;;1.83;;
4700;SDS011;8724;51.272;6.554;2023-07-13T14:53:01;3.00;;;1.90;;
4700;SDS011;8724;51.272;6.554;2023-07-13T14:55:30;3.13;;;1.73;;
4700;SDS011;8724;51.272;6.554;2023-07-13T14:58:00;2.87;;;1.80;;
4700;SDS011;8724;51.272;6.554;2023-07-13T15:00:28;3.63;;;2.10;;
4700;SDS011;8724;51.272;6.554;2023-07-13T15:02:58;3.00;;;1.80;;
4700;SDS011;8724;51.272;6.554;2023-07-13T15:05:28;4.10;;;1.60;;
4700;SDS011;8724;51.272;6.554;2023-07-13T15:07:59;3.70;;;2.00;;
4700;SDS011;8724;51.272;6.554;2023-07-13T15:10:30;6.83;;;2.17;;
4700;SDS011;8724;51.272;6.554;2023-07-13T15:13:12;4.87;;;1.90;;
4700;SDS011;8724;51.272;6.554;2023-07-13T15:15:43;3.23;;;2.33;;
4700;SDS011;8724;51.272;6.554;2023-07-13T15:18:14;2.40;;;1.67;;
4700;SDS011;8724;51.272;6.554;2023-07-13T15:20:45;3.53;;;1.90;;
4700;SDS011;8724;51.272;6.554;2023-07-13T15:23:15;4.10;;;2.20;;
4700;SDS011;8724;51.272;6.554;2023-07-13T15:25:44;2.60;;;1.83;;
4700;SDS011;8724;51.272;6.554;2023-07-13T15:28:15;7.13;;;2.27;;
4700;SDS011;8724;51.272;6.554;2023-07-13T15:30:44;4.00;;;2.20;;
4700;SDS011;8724;51.272;6.554;2023-07-13T15:33:15;7.63;;;2.77;;
4700;SDS011;8724;51.272;6.554;2023-07-13T15:35:46;6.37;;;2.90;;
4700;SDS011;8724;51.272;6.554;2023-07-13T15:38:18;7.00;;;2.93;;
4700;SDS011;8724;51.272;6.554;2023-07-13T15:40:48;5.20;;;2.20;;
4700;SDS011;8724;51.272;6.554;2023-07-13T15:43:19;4.23;;;2.20;;
4700;SDS011;8724;51.272;6.554;2023-07-13T15:45:48;4.33;;;2.60;;
4700;SDS011;8724;51.272;6.554;2023-07-13T15:48:18;6.90;;;2.20;;
4700;SDS011;8724;51.272;6.554;2023-07-13T15:50:50;2.47;;;1.80;;